sensor_id;sensor_type;location;lat;lon;timestamp;P1;durP1;ratioP1;P2;durP2;ratioP2
39044;SDS011;52192;52.002;5.956;2024-01-07T00:01:07;10.60;;;6.25;;
39044;SDS011;52192;52.002;5.956;2024-01-07T00:03:34;9.80;;;5.70;;
39044;SDS011;52192;52.002;5.956;2024-01-07T00:05:59;10.70;;;6.32;;
39044;SDS011;52192;52.002;5.956;2024-01-07T00:08:25;9.63;;;5.70;;
39044;SDS011;52192;52.002;5.956;2024-01-07T00:10:51;10.52;;;6.70;;
39044;SDS011;52192;52.002;5.956;2024-01-07T00:13:16;13.15;;;6.47;;
39044;SDS011;52192;52.002;5.956;2024-01-07T00:15:42;10.77;;;6.00;;
39044;SDS011;52192;52.002;5.956;2024-01-07T00:18:08;15.60;;;7.85;;
39044;SDS011;52192;52.002;5.956;2024-01-07T00:20:34;11.30;;;7.13;;
39044;SDS011;52192;52.002;5.956;2024-01-07T00:22:59;13.02;;;6.35;;
39044;SDS011;52192;52.002;5.956;2024-01-07T00:25:26;15.27;;;6.95;;
39044;SDS011;52192;52.002;5.956;2024-01-07T00:27:51;13.38;;;8.05;;
39044;SDS011;52192;52.002;5.956;2024-01-07T00:30:20;10.73;;;6.68;;
39044;SDS011;52192;52.002;5.956;2024-01-07T00:32:46;13.40;;;7.68;;
39044;SDS011;52192;52.002;5.956;2024-01-07T00:35:12;14.63;;;8.57;;
39044;SDS011;52192;52.002;5.956;2024-01-07T00:37:38;16.02;;;7.88;;
39044;SDS011;52192;52.002;5.956;2024-01-07T00:40:04;15.73;;;8.73;;
39044;SDS011;52192;52.002;5.956;2024-01-07T00:42:30;14.70;;;9.38;;
39044;SDS011;52192;52.002;5.956;2024-01-07T00:44:56;13.18;;;7.15;;
39044;SDS011;52192;52.002;5.956;2024-01-07T00:47:22;18.40;;;9.48;;
39044;SDS011;52192;52.002;5.956;2024-01-07T00:49:47;17.55;;;7.88;;
39044;SDS011;52192;52.002;5.956;2024-01-07T00:52:13;16.70;;;8.85;;
39044;SDS011;52192;52.002;5.956;2024-01-07T00:54:39;18.70;;;10.20;;
39044;SDS011;52192;52.002;5.956;2024-01-07T00:57:04;11.80;;;6.18;;
39044;SDS011;52192;52.002;5.956;2024-01-07T00:59:30;15.90;;;8.70;;
39044;SDS011;52192;52.002;5.956;2024-01-07T01:01:56;15.32;;;7.20;;
39044;SDS011;52192;52.002;5.956;2024-01-07T01:04:21;17.48;;;7.63;;
39044;SDS011;52192;52.002;5.956;2024-01-07T01:06:47;13.35;;;6.97;;
39044;SDS011;52192;52.002;5.956;2024-01-07T01:09:13;13.75;;;8.50;;
39044;SDS011;52192;52.002;5.956;2024-01-07T01:11:39;11.65;;;7.53;;
39044;SDS011;52192;52.002;5.956;2024-01-07T01:14:04;10.20;;;6.88;;
39044;SDS011;52192;52.002;5.956;2024-01-07T01:16:30;11.07;;;7.43;;
39044;SDS011;52192;52.002;5.956;2024-01-07T01:18:56;10.35;;;6.47;;
39044;SDS011;52192;52.002;5.956;2024-01-07T01:21:21;15.30;;;6.93;;
39044;SDS011;52192;52.002;5.956;2024-01-07T01:23:48;13.57;;;7.20;;
39044;SDS011;52192;52.002;5.956;2024-01-07T01:26:14;13.38;;;7.28;;
39044;SDS011;52192;52.002;5.956;2024-01-07T01:28:40;12.32;;;6.65;;
39044;SDS011;52192;52.002;5.956;2024-01-07T01:31:06;10.23;;;5.70;;
39044;SDS011;52192;52.002;5.956;2024-01-07T01:33:32;8.38;;;5.50;;
39044;SDS011;52192;52.002;5.956;2024-01-07T01:35:57;12.57;;;6.53;;
39044;SDS011;52192;52.002;5.956;2024-01-07T01:38:23;11.70;;;6.22;;
39044;SDS011;52192;52.002;5.956;2024-01-07T01:40:52;10.50;;;5.68;;
39044;SDS011;52192;52.002;5.956;2024-01-07T01:43:28;10.80;;;7.35;;
39044;SDS011;52192;52.002;5.956;2024-01-07T01:45:54;9.55;;;6.72;;
39044;SDS011;52192;52.002;5.956;2024-01-07T01:48:21;15.25;;;6.82;;
39044;SDS011;52192;52.002;5.956;2024-01-07T01:50:48;8.45;;;5.72;;
39044;SDS011;52192;52.002;5.956;2024-01-07T01:53:15;15.30;;;6.57;;
39044;SDS011;52192;52.002;5.956;2024-01-07T01:55:41;11.90;;;6.25;;
39044;SDS011;52192;52.002;5.956;2024-01-07T01:58:08;11.52;;;6.10;;
39044;SDS011;52192;52.002;5.956;2024-01-07T02:00:35;12.57;;;6.03;;
39044;SDS011;52192;52.002;5.956;2024-01-07T02:03:00;10.48;;;5.95;;
39044;SDS011;52192;52.002;5.956;2024-01-07T02:05:26;8.35;;;5.57;;
39044;SDS011;52192;52.002;5.956;2024-01-07T02:07:53;9.13;;;6.00;;
39044;SDS011;52192;52.002;5.956;2024-01-07T02:10:21;11.95;;;7.20;;
39044;SDS011;52192;52.002;5.956;2024-01-07T02:12:47;12.82;;;8.23;;
39044;SDS011;52192;52.002;5.956;2024-01-07T02:15:13;16.02;;;6.88;;
39044;SDS011;52192;52.002;5.956;2024-01-07T02:17:39;9.43;;;6.82;;
39044;SDS011;52192;52.002;5.956;2024-01-07T02:20:05;13.27;;;7.97;;
39044;SDS011;52192;52.002;5.956;2024-01-07T02:22:32;15.02;;;8.23;;
39044;SDS011;52192;52.002;5.956;2024-01-07T02:24:57;15.73;;;6.50;;
39044;SDS011;52192;52.002;5.956;2024-01-07T02:27:23;15.35;;;8.00;;
39044;SDS011;52192;52.002;5.956;2024-01-07T02:29:49;11.27;;;7.78;;
39044;SDS011;52192;52.002;5.956;2024-01-07T02:32:14;11.93;;;6.38;;
39044;SDS011;52192;52.002;5.956;2024-01-07T02:34:40;11.75;;;6.93;;
39044;SDS011;52192;52.002;5.956;2024-01-07T02:37:06;9.38;;;5.50;;
39044;SDS011;52192;52.002;5.956;2024-01-07T02:39:31;9.50;;;5.53;;
39044;SDS011;52192;52.002;5.956;2024-01-07T02:41:57;15.15;;;6.97;;
39044;SDS011;52192;52.002;5.956;2024-01-07T02:44:23;15.85;;;5.43;;
39044;SDS011;52192;52.002;5.956;2024-01-07T02:46:49;11.32;;;5.72;;
39044;SDS011;52192;52.002;5.956;2024-01-07T02:49:14;8.80;;;5.47;;
39044;SDS011;52192;52.002;5.956;2024-01-07T02:51:40;11.30;;;5.55;;
39044;SDS011;52192;52.002;5.956;2024-01-07T02:54:06;10.43;;;5.38;;
39044;SDS011;52192;52.002;5.956;2024-01-07T02:56:32;13.82;;;8.27;;
39044;SDS011;52192;52.002;5.956;2024-01-07T02:58:57;10.48;;;6.88;;
39044;SDS011;52192;52.002;5.956;2024-01-07T03:01:23;12.52;;;6.28;;
39044;SDS011;52192;52.002;5.956;2024-01-07T03:03:49;8.68;;;5.50;;
39044;SDS011;52192;52.002;5.956;2024-01-07T03:06:15;11.35;;;6.30;;
39044;SDS011;52192;52.002;5.956;2024-01-07T03:08:41;10.25;;;5.30;;
39044;SDS011;52192;52.002;5.956;2024-01-07T03:11:08;13.82;;;5.90;;
39044;SDS011;52192;52.002;5.956;2024-01-07T03:13:33;7.00;;;4.45;;
39044;SDS011;52192;52.002;5.956;2024-01-07T03:15:59;9.63;;;4.47;;
39044;SDS011;52192;52.002;5.956;2024-01-07T03:18:26;7.13;;;4.50;;
39044;SDS011;52192;52.002;5.956;2024-01-07T03:20:52;8.57;;;4.22;;
39044;SDS011;52192;52.002;5.956;2024-01-07T03:23:18;10.38;;;5.25;;
39044;SDS011;52192;52.002;5.956;2024-01-07T03:25:44;7.03;;;3.78;;
39044;SDS011;52192;52.002;5.956;2024-01-07T03:28:09;10.93;;;5.78;;
39044;SDS011;52192;52.002;5.956;2024-01-07T03:30:35;5.38;;;3.65;;
39044;SDS011;52192;52.002;5.956;2024-01-07T03:33:01;8.23;;;4.18;;
39044;SDS011;52192;52.002;5.956;2024-01-07T03:35:27;6.68;;;3.92;;
39044;SDS011;52192;52.002;5.956;2024-01-07T03:37:52;8.32;;;4.65;;
39044;SDS011;52192;52.002;5.956;2024-01-07T03:40:18;7.47;;;4.97;;
39044;SDS011;52192;52.002;5.956;2024-01-07T03:42:44;5.75;;;3.50;;
39044;SDS011;52192;52.002;5.956;2024-01-07T03:45:09;7.88;;;4.13;;
39044;SDS011;52192;52.002;5.956;2024-01-07T03:47:35;7.40;;;4.38;;
39044;SDS011;52192;52.002;5.956;2024-01-07T03:50:01;6.03;;;4.28;;
39044;SDS011;52192;52.002;5.956;2024-01-07T03:52:27;6.45;;;3.88;;
39044;SDS011;52192;52.002;5.956;2024-01-07T03:54:53;5.70;;;3.72;;
39044;SDS011;52192;52.002;5.956;2024-01-07T03:57:19;5.20;;;3.85;;
39044;SDS011;52192;52.002;5.956;2024-01-07T03:59:45;5.72;;;3.78;;
39044;SDS011;52192;52.002;5.956;2024-01-07T04:02:10;9.07;;;5.10;;
39044;SDS011;52192;52.002;5.956;2024-01-07T04:04:37;8.13;;;4.97;;
39044;SDS011;52192;52.002;5.956;2024-01-07T04:07:02;8.45;;;4.47;;
39044;SDS011;52192;52.002;5.956;2024-01-07T04:09:28;7.57;;;4.03;;
39044;SDS011;52192;52.002;5.956;2024-01-07T04:11:54;6.32;;;4.15;;
39044;SDS011;52192;52.002;5.956;2024-01-07T04:14:19;5.82;;;4.40;;
39044;SDS011;52192;52.002;5.956;2024-01-07T04:16:45;9.48;;;5.00;;
39044;SDS011;52192;52.002;5.956;2024-01-07T04:19:11;6.78;;;3.88;;
39044;SDS011;52192;52.002;5.956;2024-01-07T04:21:36;6.70;;;3.95;;
39044;SDS011;52192;52.002;5.956;2024-01-07T04:24:02;8.00;;;5.18;;
39044;SDS011;52192;52.002;5.956;2024-01-07T04:26:28;6.22;;;4.57;;
39044;SDS011;52192;52.002;5.956;2024-01-07T04:28:54;6.40;;;4.32;;
39044;SDS011;52192;52.002;5.956;2024-01-07T04:31:19;6.45;;;4.03;;
39044;SDS011;52192;52.002;5.956;2024-01-07T04:33:45;8.07;;;5.25;;
39044;SDS011;52192;52.002;5.956;2024-01-07T04:36:11;6.35;;;4.43;;
39044;SDS011;52192;52.002;5.956;2024-01-07T04:38:36;7.03;;;4.95;;
39044;SDS011;52192;52.002;5.956;2024-01-07T04:41:02;7.30;;;5.03;;
39044;SDS011;52192;52.002;5.956;2024-01-07T04:43:28;6.72;;;4.00;;
39044;SDS011;52192;52.002;5.956;2024-01-07T04:45:55;10.70;;;5.70;;
39044;SDS011;52192;52.002;5.956;2024-01-07T04:48:20;6.60;;;4.22;;
39044;SDS011;52192;52.002;5.956;2024-01-07T04:50:46;9.43;;;4.95;;
39044;SDS011;52192;52.002;5.956;2024-01-07T04:53:12;7.70;;;4.63;;
39044;SDS011;52192;52.002;5.956;2024-01-07T04:55:38;7.70;;;4.65;;
39044;SDS011;52192;52.002;5.956;2024-01-07T04:58:04;10.52;;;4.97;;
39044;SDS011;52192;52.002;5.956;2024-01-07T05:00:30;7.40;;;4.88;;
39044;SDS011;52192;52.002;5.956;2024-01-07T05:02:56;6.50;;;4.43;;
39044;SDS011;52192;52.002;5.956;2024-01-07T05:05:21;8.75;;;4.68;;
39044;SDS011;52192;52.002;5.956;2024-01-07T05:07:47;6.22;;;3.85;;
39044;SDS011;52192;52.002;5.956;2024-01-07T05:10:13;7.25;;;5.03;;
39044;SDS011;52192;52.002;5.956;2024-01-07T05:12:39;10.18;;;4.70;;
39044;SDS011;52192;52.002;5.956;2024-01-07T05:15:04;5.40;;;3.85;;
39044;SDS011;52192;52.002;5.956;2024-01-07T05:17:31;6.40;;;4.60;;
39044;SDS011;52192;52.002;5.956;2024-01-07T05:19:57;8.38;;;4.15;;
39044;SDS011;52192;52.002;5.956;2024-01-07T05:22:23;10.63;;;3.83;;
39044;SDS011;52192;52.002;5.956;2024-01-07T05:24:49;6.32;;;4.28;;
39044;SDS011;52192;52.002;5.956;2024-01-07T05:27:15;9.43;;;4.80;;
39044;SDS011;52192;52.002;5.956;2024-01-07T05:29:44;6.95;;;4.88;;
39044;SDS011;52192;52.002;5.956;2024-01-07T05:32:11;8.02;;;5.07;;
39044;SDS011;52192;52.002;5.956;2024-01-07T05:34:37;9.73;;;4.68;;
39044;SDS011;52192;52.002;5.956;2024-01-07T05:37:02;8.27;;;3.95;;
39044;SDS011;52192;52.002;5.956;2024-01-07T05:39:28;6.93;;;4.53;;
39044;SDS011;52192;52.002;5.956;2024-01-07T05:41:54;7.35;;;4.35;;
39044;SDS011;52192;52.002;5.956;2024-01-07T05:44:20;5.75;;;4.28;;
39044;SDS011;52192;52.002;5.956;2024-01-07T05:46:45;7.43;;;4.25;;
39044;SDS011;52192;52.002;5.956;2024-01-07T05:49:11;6.18;;;3.85;;
39044;SDS011;52192;52.002;5.956;2024-01-07T05:51:40;6.07;;;4.22;;
39044;SDS011;52192;52.002;5.956;2024-01-07T05:54:06;5.47;;;4.47;;
39044;SDS011;52192;52.002;5.956;2024-01-07T05:56:32;8.07;;;4.53;;
39044;SDS011;52192;52.002;5.956;2024-01-07T05:58:57;6.40;;;3.92;;
39044;SDS011;52192;52.002;5.956;2024-01-07T06:01:23;7.05;;;3.58;;
39044;SDS011;52192;52.002;5.956;2024-01-07T06:03:49;5.72;;;4.18;;
39044;SDS011;52192;52.002;5.956;2024-01-07T06:06:14;6.18;;;3.88;;
39044;SDS011;52192;52.002;5.956;2024-01-07T06:08:43;7.30;;;3.90;;
39044;SDS011;52192;52.002;5.956;2024-01-07T06:11:09;4.65;;;2.90;;
39044;SDS011;52192;52.002;5.956;2024-01-07T06:13:37;5.65;;;3.85;;
39044;SDS011;52192;52.002;5.956;2024-01-07T06:16:02;4.03;;;3.40;;
39044;SDS011;52192;52.002;5.956;2024-01-07T06:18:29;5.10;;;3.13;;
39044;SDS011;52192;52.002;5.956;2024-01-07T06:20:54;8.75;;;4.13;;
39044;SDS011;52192;52.002;5.956;2024-01-07T06:23:20;7.75;;;4.55;;
39044;SDS011;52192;52.002;5.956;2024-01-07T06:25:45;6.72;;;4.00;;
39044;SDS011;52192;52.002;5.956;2024-01-07T06:28:11;7.07;;;4.47;;
39044;SDS011;52192;52.002;5.956;2024-01-07T06:30:37;17.90;;;4.90;;
39044;SDS011;52192;52.002;5.956;2024-01-07T06:33:02;6.60;;;3.80;;
39044;SDS011;52192;52.002;5.956;2024-01-07T06:35:28;8.32;;;4.05;;
39044;SDS011;52192;52.002;5.956;2024-01-07T06:37:55;7.28;;;4.43;;
39044;SDS011;52192;52.002;5.956;2024-01-07T06:40:21;7.97;;;4.53;;
39044;SDS011;52192;52.002;5.956;2024-01-07T06:42:47;6.80;;;3.72;;
39044;SDS011;52192;52.002;5.956;2024-01-07T06:45:13;5.15;;;3.38;;
39044;SDS011;52192;52.002;5.956;2024-01-07T06:47:40;6.03;;;3.53;;
39044;SDS011;52192;52.002;5.956;2024-01-07T06:50:06;4.22;;;3.30;;
39044;SDS011;52192;52.002;5.956;2024-01-07T06:52:32;7.85;;;3.83;;
39044;SDS011;52192;52.002;5.956;2024-01-07T06:54:58;7.47;;;4.15;;
39044;SDS011;52192;52.002;5.956;2024-01-07T06:57:23;5.38;;;3.28;;
39044;SDS011;52192;52.002;5.956;2024-01-07T06:59:49;4.18;;;3.25;;
39044;SDS011;52192;52.002;5.956;2024-01-07T07:02:15;6.57;;;3.53;;
39044;SDS011;52192;52.002;5.956;2024-01-07T07:04:40;5.20;;;3.63;;
39044;SDS011;52192;52.002;5.956;2024-01-07T07:07:06;6.10;;;4.35;;
39044;SDS011;52192;52.002;5.956;2024-01-07T07:09:32;7.22;;;3.75;;
39044;SDS011;52192;52.002;5.956;2024-01-07T07:11:59;5.50;;;3.65;;
39044;SDS011;52192;52.002;5.956;2024-01-07T07:14:25;6.80;;;3.50;;
39044;SDS011;52192;52.002;5.956;2024-01-07T07:16:50;6.68;;;3.92;;
39044;SDS011;52192;52.002;5.956;2024-01-07T07:19:16;6.47;;;3.33;;
39044;SDS011;52192;52.002;5.956;2024-01-07T07:21:42;7.28;;;3.67;;
39044;SDS011;52192;52.002;5.956;2024-01-07T07:24:09;8.55;;;4.22;;
39044;SDS011;52192;52.002;5.956;2024-01-07T07:26:35;5.97;;;4.32;;
39044;SDS011;52192;52.002;5.956;2024-01-07T07:29:05;5.57;;;3.38;;
39044;SDS011;52192;52.002;5.956;2024-01-07T07:31:31;3.63;;;2.75;;
39044;SDS011;52192;52.002;5.956;2024-01-07T07:33:57;6.03;;;3.20;;
39044;SDS011;52192;52.002;5.956;2024-01-07T07:36:23;7.30;;;3.13;;
39044;SDS011;52192;52.002;5.956;2024-01-07T07:38:49;3.83;;;2.83;;
39044;SDS011;52192;52.002;5.956;2024-01-07T07:41:14;8.27;;;3.30;;
39044;SDS011;52192;52.002;5.956;2024-01-07T07:43:40;3.97;;;3.08;;
39044;SDS011;52192;52.002;5.956;2024-01-07T07:46:06;4.68;;;3.60;;
39044;SDS011;52192;52.002;5.956;2024-01-07T07:48:31;4.80;;;3.05;;
39044;SDS011;52192;52.002;5.956;2024-01-07T07:50:57;5.53;;;3.58;;
39044;SDS011;52192;52.002;5.956;2024-01-07T07:53:22;5.65;;;3.25;;
39044;SDS011;52192;52.002;5.956;2024-01-07T07:55:48;7.93;;;3.42;;
39044;SDS011;52192;52.002;5.956;2024-01-07T07:58:14;4.60;;;3.47;;
39044;SDS011;52192;52.002;5.956;2024-01-07T08:00:40;5.57;;;3.47;;
39044;SDS011;52192;52.002;5.956;2024-01-07T08:03:06;4.93;;;2.78;;
39044;SDS011;52192;52.002;5.956;2024-01-07T08:05:31;5.57;;;3.35;;
39044;SDS011;52192;52.002;5.956;2024-01-07T08:07:57;5.25;;;3.20;;
39044;SDS011;52192;52.002;5.956;2024-01-07T08:10:23;5.30;;;2.83;;
39044;SDS011;52192;52.002;5.956;2024-01-07T08:12:49;4.18;;;3.28;;
39044;SDS011;52192;52.002;5.956;2024-01-07T08:15:14;5.40;;;3.13;;
39044;SDS011;52192;52.002;5.956;2024-01-07T08:17:40;3.85;;;2.70;;
39044;SDS011;52192;52.002;5.956;2024-01-07T08:20:06;5.60;;;3.17;;
39044;SDS011;52192;52.002;5.956;2024-01-07T08:22:32;6.85;;;3.15;;
39044;SDS011;52192;52.002;5.956;2024-01-07T08:24:58;6.15;;;2.97;;
39044;SDS011;52192;52.002;5.956;2024-01-07T08:27:24;3.90;;;2.35;;
39044;SDS011;52192;52.002;5.956;2024-01-07T08:29:49;5.03;;;2.78;;
39044;SDS011;52192;52.002;5.956;2024-01-07T08:32:15;3.75;;;2.35;;
39044;SDS011;52192;52.002;5.956;2024-01-07T08:34:41;6.90;;;3.10;;
39044;SDS011;52192;52.002;5.956;2024-01-07T08:37:07;3.88;;;2.80;;
39044;SDS011;52192;52.002;5.956;2024-01-07T08:39:34;4.53;;;2.72;;
39044;SDS011;52192;52.002;5.956;2024-01-07T08:41:59;2.72;;;2.08;;
39044;SDS011;52192;52.002;5.956;2024-01-07T08:44:25;3.45;;;2.33;;
39044;SDS011;52192;52.002;5.956;2024-01-07T08:46:51;2.58;;;2.25;;
39044;SDS011;52192;52.002;5.956;2024-01-07T08:49:16;3.53;;;2.70;;
39044;SDS011;52192;52.002;5.956;2024-01-07T08:51:42;4.13;;;2.75;;
39044;SDS011;52192;52.002;5.956;2024-01-07T08:54:08;4.70;;;2.72;;
39044;SDS011;52192;52.002;5.956;2024-01-07T08:56:34;4.03;;;2.92;;
39044;SDS011;52192;52.002;5.956;2024-01-07T08:58:59;3.65;;;2.67;;
39044;SDS011;52192;52.002;5.956;2024-01-07T09:01:25;6.30;;;3.05;;
39044;SDS011;52192;52.002;5.956;2024-01-07T09:03:50;3.03;;;2.60;;
39044;SDS011;52192;52.002;5.956;2024-01-07T09:06:16;4.68;;;2.72;;
39044;SDS011;52192;52.002;5.956;2024-01-07T09:08:42;7.50;;;2.40;;
39044;SDS011;52192;52.002;5.956;2024-01-07T09:11:07;4.78;;;3.03;;
39044;SDS011;52192;52.002;5.956;2024-01-07T09:13:36;6.60;;;2.95;;
39044;SDS011;52192;52.002;5.956;2024-01-07T09:16:02;4.75;;;2.90;;
39044;SDS011;52192;52.002;5.956;2024-01-07T09:18:28;5.50;;;3.20;;
39044;SDS011;52192;52.002;5.956;2024-01-07T09:20:53;3.40;;;2.60;;
39044;SDS011;52192;52.002;5.956;2024-01-07T09:23:19;4.55;;;2.88;;
39044;SDS011;52192;52.002;5.956;2024-01-07T09:25:44;3.75;;;2.33;;
39044;SDS011;52192;52.002;5.956;2024-01-07T09:28:11;4.63;;;2.55;;
39044;SDS011;52192;52.002;5.956;2024-01-07T09:30:38;2.97;;;2.38;;
39044;SDS011;52192;52.002;5.956;2024-01-07T09:33:03;4.93;;;3.08;;
39044;SDS011;52192;52.002;5.956;2024-01-07T09:35:30;3.15;;;2.15;;
39044;SDS011;52192;52.002;5.956;2024-01-07T09:37:57;3.78;;;2.42;;
39044;SDS011;52192;52.002;5.956;2024-01-07T09:40:23;5.78;;;2.58;;
39044;SDS011;52192;52.002;5.956;2024-01-07T09:42:48;3.33;;;2.28;;
39044;SDS011;52192;52.002;5.956;2024-01-07T09:45:15;4.35;;;2.75;;
39044;SDS011;52192;52.002;5.956;2024-01-07T09:47:44;3.60;;;2.42;;
39044;SDS011;52192;52.002;5.956;2024-01-07T09:50:10;3.92;;;2.20;;
39044;SDS011;52192;52.002;5.956;2024-01-07T09:52:37;3.60;;;2.35;;
39044;SDS011;52192;52.002;5.956;2024-01-07T09:55:07;7.28;;;3.30;;
39044;SDS011;52192;52.002;5.956;2024-01-07T09:57:34;3.78;;;2.90;;
39044;SDS011;52192;52.002;5.956;2024-01-07T10:00:02;5.10;;;2.40;;
39044;SDS011;52192;52.002;5.956;2024-01-07T10:02:29;3.97;;;2.70;;
39044;SDS011;52192;52.002;5.956;2024-01-07T10:04:55;2.42;;;1.67;;
39044;SDS011;52192;52.002;5.956;2024-01-07T10:07:21;2.30;;;1.55;;
39044;SDS011;52192;52.002;5.956;2024-01-07T10:09:47;3.40;;;2.33;;
39044;SDS011;52192;52.002;5.956;2024-01-07T10:12:12;2.40;;;1.83;;
39044;SDS011;52192;52.002;5.956;2024-01-07T10:14:38;3.72;;;1.73;;
39044;SDS011;52192;52.002;5.956;2024-01-07T10:17:23;2.47;;;1.55;;
39044;SDS011;52192;52.002;5.956;2024-01-07T10:19:53;2.90;;;2.15;;
39044;SDS011;52192;52.002;5.956;2024-01-07T10:22:18;2.97;;;1.80;;
39044;SDS011;52192;52.002;5.956;2024-01-07T10:24:45;2.97;;;1.85;;
39044;SDS011;52192;52.002;5.956;2024-01-07T10:27:10;2.58;;;1.50;;
39044;SDS011;52192;52.002;5.956;2024-01-07T10:29:37;1.50;;;1.15;;
39044;SDS011;52192;52.002;5.956;2024-01-07T10:32:03;3.78;;;2.00;;
39044;SDS011;52192;52.002;5.956;2024-01-07T10:34:34;2.78;;;1.65;;
39044;SDS011;52192;52.002;5.956;2024-01-07T10:37:01;1.95;;;1.58;;
39044;SDS011;52192;52.002;5.956;2024-01-07T10:39:28;2.38;;;1.67;;
39044;SDS011;52192;52.002;5.956;2024-01-07T10:41:55;4.35;;;1.85;;
39044;SDS011;52192;52.002;5.956;2024-01-07T10:44:28;2.42;;;1.38;;
39044;SDS011;52192;52.002;5.956;2024-01-07T10:46:56;3.85;;;2.30;;
39044;SDS011;52192;52.002;5.956;2024-01-07T10:49:23;3.85;;;1.70;;
39044;SDS011;52192;52.002;5.956;2024-01-07T10:54:31;2.30;;;1.60;;
39044;SDS011;52192;52.002;5.956;2024-01-07T10:57:13;2.30;;;1.52;;
39044;SDS011;52192;52.002;5.956;2024-01-07T10:59:59;6.05;;;1.90;;
39044;SDS011;52192;52.002;5.956;2024-01-07T11:02:25;1.10;;;1.00;;
39044;SDS011;52192;52.002;5.956;2024-01-07T11:07:42;3.55;;;2.15;;
39044;SDS011;52192;52.002;5.956;2024-01-07T11:10:12;3.03;;;1.48;;
39044;SDS011;52192;52.002;5.956;2024-01-07T11:12:42;1.60;;;1.47;;
39044;SDS011;52192;52.002;5.956;2024-01-07T11:15:08;1.80;;;1.33;;
39044;SDS011;52192;52.002;5.956;2024-01-07T11:20:06;1.55;;;1.05;;
39044;SDS011;52192;52.002;5.956;2024-01-07T11:22:35;2.45;;;1.50;;
39044;SDS011;52192;52.002;5.956;2024-01-07T11:25:01;3.65;;;1.40;;
39044;SDS011;52192;52.002;5.956;2024-01-07T11:27:30;2.80;;;1.50;;
39044;SDS011;52192;52.002;5.956;2024-01-07T11:30:07;1.83;;;0.88;;
39044;SDS011;52192;52.002;5.956;2024-01-07T11:32:44;0.85;;;0.82;;
39044;SDS011;52192;52.002;5.956;2024-01-07T11:35:13;1.20;;;1.10;;
39044;SDS011;52192;52.002;5.956;2024-01-07T11:37:40;2.67;;;1.02;;
39044;SDS011;52192;52.002;5.956;2024-01-07T11:40:06;5.18;;;0.73;;
39044;SDS011;52192;52.002;5.956;2024-01-07T11:42:33;0.93;;;0.70;;
39044;SDS011;52192;52.002;5.956;2024-01-07T11:44:59;1.42;;;1.02;;
39044;SDS011;52192;52.002;5.956;2024-01-07T11:47:24;1.15;;;0.73;;
39044;SDS011;52192;52.002;5.956;2024-01-07T11:49:53;3.60;;;0.93;;
39044;SDS011;52192;52.002;5.956;2024-01-07T11:52:19;3.45;;;0.80;;
39044;SDS011;52192;52.002;5.956;2024-01-07T11:54:45;1.52;;;0.90;;
39044;SDS011;52192;52.002;5.956;2024-01-07T11:57:13;1.02;;;0.93;;
39044;SDS011;52192;52.002;5.956;2024-01-07T11:59:39;1.90;;;1.17;;
39044;SDS011;52192;52.002;5.956;2024-01-07T12:02:05;1.30;;;0.82;;
39044;SDS011;52192;52.002;5.956;2024-01-07T12:04:31;1.75;;;0.63;;
39044;SDS011;52192;52.002;5.956;2024-01-07T12:06:57;0.63;;;0.63;;
39044;SDS011;52192;52.002;5.956;2024-01-07T12:09:24;2.03;;;0.85;;
39044;SDS011;52192;52.002;5.956;2024-01-07T12:11:50;1.35;;;0.57;;
39044;SDS011;52192;52.002;5.956;2024-01-07T12:14:16;0.50;;;0.50;;
39044;SDS011;52192;52.002;5.956;2024-01-07T12:16:43;0.80;;;0.52;;
39044;SDS011;52192;52.002;5.956;2024-01-07T12:19:09;1.00;;;0.77;;
39044;SDS011;52192;52.002;5.956;2024-01-07T12:21:35;1.17;;;1.02;;
39044;SDS011;52192;52.002;5.956;2024-01-07T12:24:01;0.60;;;0.57;;
39044;SDS011;52192;52.002;5.956;2024-01-07T12:26:28;0.77;;;0.68;;
39044;SDS011;52192;52.002;5.956;2024-01-07T12:28:54;1.20;;;0.60;;
39044;SDS011;52192;52.002;5.956;2024-01-07T12:31:25;0.70;;;0.70;;
39044;SDS011;52192;52.002;5.956;2024-01-07T12:33:54;0.40;;;0.40;;
39044;SDS011;52192;52.002;5.956;2024-01-07T12:36:21;2.13;;;0.70;;
39044;SDS011;52192;52.002;5.956;2024-01-07T12:38:47;1.02;;;0.60;;
39044;SDS011;52192;52.002;5.956;2024-01-07T12:41:14;1.02;;;0.70;;
39044;SDS011;52192;52.002;5.956;2024-01-07T12:43:40;0.80;;;0.68;;
39044;SDS011;52192;52.002;5.956;2024-01-07T12:46:05;0.57;;;0.40;;
39044;SDS011;52192;52.002;5.956;2024-01-07T12:48:32;0.95;;;0.60;;
39044;SDS011;52192;52.002;5.956;2024-01-07T12:50:58;1.25;;;0.50;;
39044;SDS011;52192;52.002;5.956;2024-01-07T12:53:25;0.47;;;0.47;;
39044;SDS011;52192;52.002;5.956;2024-01-07T12:55:52;0.38;;;0.38;;
39044;SDS011;52192;52.002;5.956;2024-01-07T12:58:18;0.75;;;0.68;;
39044;SDS011;52192;52.002;5.956;2024-01-07T13:00:44;0.63;;;0.50;;
39044;SDS011;52192;52.002;5.956;2024-01-07T13:03:10;1.33;;;0.50;;
39044;SDS011;52192;52.002;5.956;2024-01-07T13:05:44;1.75;;;0.73;;
39044;SDS011;52192;52.002;5.956;2024-01-07T13:08:11;0.43;;;0.40;;
39044;SDS011;52192;52.002;5.956;2024-01-07T13:10:38;0.88;;;0.45;;
39044;SDS011;52192;52.002;5.956;2024-01-07T13:13:04;0.93;;;0.63;;
39044;SDS011;52192;52.002;5.956;2024-01-07T13:15:30;0.35;;;0.35;;
39044;SDS011;52192;52.002;5.956;2024-01-07T13:17:56;1.40;;;0.40;;
39044;SDS011;52192;52.002;5.956;2024-01-07T13:20:22;0.60;;;0.60;;
39044;SDS011;52192;52.002;5.956;2024-01-07T13:22:48;2.80;;;0.90;;
39044;SDS011;52192;52.002;5.956;2024-01-07T13:25:14;0.30;;;0.30;;
39044;SDS011;52192;52.002;5.956;2024-01-07T13:27:40;0.63;;;0.57;;
39044;SDS011;52192;52.002;5.956;2024-01-07T13:30:07;2.17;;;0.93;;
39044;SDS011;52192;52.002;5.956;2024-01-07T13:32:33;0.60;;;0.50;;
39044;SDS011;52192;52.002;5.956;2024-01-07T13:35:05;4.53;;;0.65;;
39044;SDS011;52192;52.002;5.956;2024-01-07T13:37:35;0.73;;;0.47;;
39044;SDS011;52192;52.002;5.956;2024-01-07T13:40:01;2.70;;;0.95;;
39044;SDS011;52192;52.002;5.956;2024-01-07T13:42:28;0.35;;;0.30;;
39044;SDS011;52192;52.002;5.956;2024-01-07T13:44:54;0.65;;;0.50;;
39044;SDS011;52192;52.002;5.956;2024-01-07T13:47:20;0.32;;;0.32;;
39044;SDS011;52192;52.002;5.956;2024-01-07T13:49:46;0.40;;;0.40;;
39044;SDS011;52192;52.002;5.956;2024-01-07T13:52:12;0.57;;;0.40;;
39044;SDS011;52192;52.002;5.956;2024-01-07T13:54:37;1.05;;;0.73;;
39044;SDS011;52192;52.002;5.956;2024-01-07T13:57:04;0.50;;;0.50;;
39044;SDS011;52192;52.002;5.956;2024-01-07T13:59:29;0.45;;;0.45;;
39044;SDS011;52192;52.002;5.956;2024-01-07T14:01:55;0.32;;;0.32;;
39044;SDS011;52192;52.002;5.956;2024-01-07T14:04:22;1.38;;;0.73;;
39044;SDS011;52192;52.002;5.956;2024-01-07T14:06:53;0.47;;;0.47;;
39044;SDS011;52192;52.002;5.956;2024-01-07T14:09:22;0.85;;;0.40;;
39044;SDS011;52192;52.002;5.956;2024-01-07T14:11:49;0.90;;;0.40;;
39044;SDS011;52192;52.002;5.956;2024-01-07T14:14:15;1.17;;;0.40;;
39044;SDS011;52192;52.002;5.956;2024-01-07T14:16:41;1.00;;;0.40;;
39044;SDS011;52192;52.002;5.956;2024-01-07T14:19:06;0.30;;;0.30;;
39044;SDS011;52192;52.002;5.956;2024-01-07T14:21:32;0.75;;;0.40;;
39044;SDS011;52192;52.002;5.956;2024-01-07T14:23:58;1.10;;;0.70;;
39044;SDS011;52192;52.002;5.956;2024-01-07T14:26:23;0.82;;;0.40;;
39044;SDS011;52192;52.002;5.956;2024-01-07T14:28:49;0.30;;;0.28;;
39044;SDS011;52192;52.002;5.956;2024-01-07T14:31:16;0.73;;;0.50;;
39044;SDS011;52192;52.002;5.956;2024-01-07T14:33:42;0.65;;;0.30;;
39044;SDS011;52192;52.002;5.956;2024-01-07T14:36:08;0.30;;;0.30;;
39044;SDS011;52192;52.002;5.956;2024-01-07T14:38:41;1.10;;;0.50;;
39044;SDS011;52192;52.002;5.956;2024-01-07T14:41:11;1.15;;;0.50;;
39044;SDS011;52192;52.002;5.956;2024-01-07T14:43:36;0.60;;;0.50;;
39044;SDS011;52192;52.002;5.956;2024-01-07T14:46:03;0.20;;;0.20;;
39044;SDS011;52192;52.002;5.956;2024-01-07T14:48:28;0.60;;;0.60;;